Time;durP1;ratioP1;P1;durP2;ratioP2;P2;SDS_P1;SDS_P2;PMS_P1;PMS_P2;Temp;Humidity;BMP_temperature;BMP_pressure;BME280_temperature;BME280_humidity;BME280_pressure;Samples;Min_cycle;Max_cycle;Signal;HPM_P1;HPM_P2
2022/04/02 00:01:46;;;;;;;0.40;0.30;;;;;;;12.77;100.00;93940.19;5092867;28;20424;-51
2022/04/02 00:04:16;;;;;;;0.40;0.30;;;;;;;12.46;100.00;93943.03;5092476;28;20924;-52
2022/04/02 00:06:45;;;;;;;2.63;1.13;;;;;;;12.31;100.00;93936.31;5092786;28;20948;-51
2022/04/02 00:09:14;;;;;;;0.40;0.30;;;;;;;12.65;100.00;93952.22;5092505;28;20464;-51
2022/04/02 00:11:45;;;;;;;0.40;0.30;;;;;;;12.48;100.00;93925.69;5092554;28;20513;-50
2022/04/02 00:14:14;;;;;;;0.40;0.30;;;;;;;12.67;100.00;93939.41;5092460;28;20436;-54
2022/04/02 00:16:43;;;;;;;0.30;0.30;;;;;;;12.58;100.00;93911.28;5092185;28;20449;-52
2022/04/02 00:19:13;;;;;;;0.50;0.50;;;;;;;12.81;100.00;93925.16;5092593;28;20463;-51
2022/04/02 00:21:42;;;;;;;0.30;0.30;;;;;;;12.50;100.00;93942.06;5092550;28;20436;-50
2022/04/02 00:24:12;;;;;;;2.20;2.10;;;;;;;12.65;100.00;93954.09;5092503;28;20870;-51
2022/04/02 00:26:40;;;;;;;0.30;0.20;;;;;;;12.61;100.00;93956.63;5092480;28;20440;-51
2022/04/02 00:29:11;;;;;;;2.77;2.70;;;;;;;12.34;100.00;93961.47;5092702;28;20444;-52
2022/04/02 00:31:40;;;;;;;0.47;0.40;;;;;;;12.11;100.00;93960.84;5092370;28;20482;-51
2022/04/02 00:34:09;;;;;;;2.47;2.00;;;;;;;12.13;100.00;93952.56;5092181;28;20517;-51
2022/04/02 00:36:38;;;;;;;1.03;0.40;;;;;;;12.37;100.00;93948.34;5092550;28;20428;-51
2022/04/02 00:39:07;;;;;;;0.30;0.20;;;;;;;12.64;100.00;93947.22;5092426;28;20884;-51
2022/04/02 00:41:36;;;;;;;0.30;0.20;;;;;;;12.58;100.00;93949.28;5092020;28;20483;-51
2022/04/02 00:44:12;;;;;;;0.30;0.20;;;;;;;12.25;100.00;93944.75;5092006;28;20428;-51
2022/04/02 00:46:41;;;;;;;0.30;0.20;;;;;;;12.43;100.00;93948.97;5092408;28;20455;-51
2022/04/02 00:49:11;;;;;;;0.30;0.20;;;;;;;12.38;100.00;93951.78;5092226;28;20432;-51
2022/04/02 00:51:42;;;;;;;0.40;0.30;;;;;;;12.17;100.00;93948.19;5091988;28;20485;-51
2022/04/02 00:54:13;;;;;;;0.50;0.40;;;;;;;11.87;100.00;93928.63;5091815;28;20523;-51
2022/04/02 00:56:42;;;;;;;0.40;0.30;;;;;;;11.69;100.00;93935.78;5092274;28;20448;-51
2022/04/02 00:59:12;;;;;;;0.30;0.20;;;;;;;11.72;100.00;93942.34;5092048;28;20440;-51
2022/04/02 01:01:43;;;;;;;0.30;0.20;;;;;;;11.94;100.00;93939.59;5091815;28;20468;-51
2022/04/02 01:04:11;;;;;;;0.30;0.20;;;;;;;11.42;100.00;93912.13;5091817;28;20955;-51
2022/04/02 01:06:42;;;;;;;0.30;0.20;;;;;;;11.98;100.00;93943.16;5092044;28;20526;-51
2022/04/02 01:09:10;;;;;;;0.37;0.30;;;;;;;11.77;100.00;93950.16;5091262;28;21039;-51
2022/04/02 01:11:40;;;;;;;0.30;0.30;;;;;;;12.03;100.00;93935.06;5091994;28;20844;-51
2022/04/02 01:14:26;;;;;;;0.30;0.20;;;;;;;11.36;100.00;93826.59;5091719;28;20429;-51
2022/04/02 01:16:56;;;;;;;0.30;0.20;;;;;;;12.38;100.00;93946.47;5091698;28;20880;-51
2022/04/02 01:19:25;;;;;;;0.60;0.60;;;;;;;12.57;100.00;93942.38;5091604;28;20433;-51
2022/04/02 01:21:55;;;;;;;1.33;1.23;;;;;;;12.71;100.00;93945.66;5091972;28;20463;-51
2022/04/02 01:24:24;;;;;;;0.30;0.30;;;;;;;12.71;100.00;93940.34;5091612;28;20440;-51
2022/04/02 01:26:52;;;;;;;0.50;0.30;;;;;;;12.83;100.00;93944.22;5091621;28;20424;-51
2022/04/02 01:29:21;;;;;;;0.67;0.67;;;;;;;12.71;100.00;93952.84;5094824;28;20504;-51
2022/04/02 01:31:49;;;;;;;0.30;0.20;;;;;;;12.00;100.00;93954.25;5096053;28;20471;-51
2022/04/02 01:34:20;;;;;;;0.80;0.63;;;;;;;12.29;100.00;93956.31;5095592;28;20468;-51
2022/04/02 01:36:49;;;;;;;0.30;0.20;;;;;;;12.35;100.00;93965.69;5095682;28;20520;-51
2022/04/02 01:39:18;;;;;;;0.30;0.20;;;;;;;12.46;100.00;93965.06;5095848;28;20463;-51
2022/04/02 01:41:47;;;;;;;0.30;0.20;;;;;;;12.36;100.00;93977.88;5095547;28;20424;-51
2022/04/02 01:44:15;;;;;;;0.30;0.20;;;;;;;12.33;100.00;93954.59;5095427;28;20439;-50
2022/04/02 01:46:44;;;;;;;0.40;0.30;;;;;;;12.49;100.00;93977.75;5095275;28;20456;-51
2022/04/02 01:49:12;;;;;;;0.30;0.20;;;;;;;12.34;100.00;93969.44;5095332;28;20460;-51
2022/04/02 01:51:41;;;;;;;0.30;0.30;;;;;;;12.27;100.00;93972.56;5095717;28;20512;-50
2022/04/02 01:54:09;;;;;;;0.30;0.20;;;;;;;12.36;100.00;93978.66;5094948;28;20483;-50
2022/04/02 01:56:39;;;;;;;0.40;0.30;;;;;;;12.54;100.00;93984.75;5095392;28;20473;-51
2022/04/02 01:59:07;;;;;;;0.50;0.30;;;;;;;11.86;100.00;93916.47;5095188;28;20964;-51
2022/04/02 02:01:35;;;;;;;0.73;0.47;;;;;;;12.26;100.00;93981.63;5095396;28;20463;-50
2022/04/02 02:04:04;;;;;;;32.93;0.90;;;;;;;11.92;100.00;93986.88;5095188;28;20439;-51
2022/04/02 02:06:33;;;;;;;0.47;0.47;;;;;;;12.33;100.00;93986.47;5095413;28;20493;-51
2022/04/02 02:09:01;;;;;;;0.60;0.40;;;;;;;12.49;100.00;93982.25;5094750;28;21003;-50
2022/04/02 02:11:30;;;;;;;0.50;0.50;;;;;;;12.11;100.00;93971.47;5094799;28;20844;-51
2022/04/02 02:14:00;;;;;;;0.63;0.63;;;;;;;12.24;100.00;93981.16;5094870;28;20436;-51
2022/04/02 02:16:28;;;;;;;0.40;0.33;;;;;;;12.46;100.00;93978.34;5094974;28;20424;-50
2022/04/02 02:18:57;;;;;;;0.33;0.27;;;;;;;12.44;100.00;93979.75;5094980;28;20515;-50
2022/04/02 02:21:25;;;;;;;1.17;0.50;;;;;;;12.46;100.00;93988.19;5094853;28;20841;-51
2022/04/02 02:23:54;;;;;;;0.70;0.70;;;;;;;12.59;100.00;93981.94;5094809;28;20432;-51
2022/04/02 02:26:22;;;;;;;0.50;0.37;;;;;;;12.38;100.00;93992.41;5094598;28;20997;-50
2022/04/02 02:28:51;;;;;;;0.50;0.47;;;;;;;12.45;100.00;94003.34;5094417;28;20496;-51
2022/04/02 02:31:20;;;;;;;0.40;0.30;;;;;;;12.30;100.00;93990.53;5094421;28;21005;-51
2022/04/02 02:36:35;;;;;;;0.40;0.20;;;;;;;12.09;100.00;93992.25;5094260;28;20532;-51
2022/04/02 02:39:04;;;;;;;0.30;0.20;;;;;;;12.33;100.00;93989.13;5094260;28;20512;-51
2022/04/02 02:41:32;;;;;;;0.50;0.50;;;;;;;11.71;100.00;94004.47;5093681;28;20463;-51
2022/04/02 02:44:01;;;;;;;0.60;0.33;;;;;;;11.83;100.00;94012.63;5094188;28;20527;-51
2022/04/02 02:46:32;;;;;;;0.40;0.30;;;;;;;11.78;100.00;93979.06;5094302;28;20520;-51
2022/04/02 02:49:01;;;;;;;0.47;0.40;;;;;;;11.75;100.00;93986.84;5094354;28;20497;-51
2022/04/02 02:51:30;;;;;;;0.40;0.40;;;;;;;11.87;100.00;93971.88;5094109;28;21008;-51
2022/04/02 02:53:58;;;;;;;0.30;0.20;;;;;;;10.14;100.00;93714.44;5094047;28;20433;-51
2022/04/02 02:56:30;;;;;;;0.30;0.30;;;;;;;12.33;100.00;93997.09;5094037;28;20512;-51
2022/04/02 02:58:58;;;;;;;0.30;0.20;;;;;;;12.23;100.00;94006.16;5094276;28;20855;-51
2022/04/02 03:01:26;;;;;;;1.33;0.93;;;;;;;12.41;100.00;93993.66;5093728;28;20555;-51
2022/04/02 03:03:56;;;;;;;0.30;0.20;;;;;;;12.55;100.00;93984.44;5093817;28;20443;-51
2022/04/02 03:06:24;;;;;;;0.30;0.20;;;;;;;11.22;100.00;93878.97;5093762;28;20467;-51
2022/04/02 03:08:53;;;;;;;0.60;0.60;;;;;;;12.23;100.00;94010.69;5093426;28;20503;-51
2022/04/02 03:11:22;;;;;;;0.40;0.40;;;;;;;12.65;100.00;94007.25;5092911;28;20500;-51
2022/04/02 03:13:50;;;;;;;0.30;0.20;;;;;;;12.55;100.00;94020.84;5093587;28;20456;-51
2022/04/02 03:16:18;;;;;;;5.40;0.93;;;;;;;11.10;100.00;93892.06;5093794;28;20416;-51
2022/04/02 03:18:48;;;;;;;0.53;0.40;;;;;;;12.33;100.00;94032.41;5093697;28;20432;-51
2022/04/02 03:21:18;;;;;;;0.40;0.40;;;;;;;12.43;100.00;94039.31;5093792;28;20575;-51
2022/04/02 03:23:46;;;;;;;0.40;0.30;;;;;;;12.29;100.00;94023.53;5093562;28;20969;-51
2022/04/02 03:26:15;;;;;;;0.40;0.30;;;;;;;12.28;100.00;94023.81;5093491;28;20412;-51
2022/04/02 03:28:46;;;;;;;0.30;0.20;;;;;;;12.17;100.00;94025.22;5093397;28;20460;-51
2022/04/02 03:31:14;;;;;;;0.30;0.20;;;;;;;12.31;100.00;94039.13;5093334;28;20497;-51
2022/04/02 03:33:43;;;;;;;1.27;0.50;;;;;;;11.94;100.00;94041.22;5093613;28;20436;-50
2022/04/02 03:36:12;;;;;;;2.20;0.40;;;;;;;12.04;100.00;94034.88;5092679;28;20452;-50
2022/04/02 03:38:42;;;;;;;1.73;0.50;;;;;;;11.96;100.00;94027.66;5093054;28;20527;-50
2022/04/02 03:41:12;;;;;;;1.23;0.60;;;;;;;11.00;100.00;93894.19;5093120;28;20503;-50
2022/04/02 03:43:41;;;;;;;0.40;0.40;;;;;;;12.09;100.00;94026.75;5093324;28;20847;-50
2022/04/02 03:48:57;;;;;;;0.40;0.30;;;;;;;12.31;100.00;94055.06;5093319;28;20440;-50
2022/04/02 03:51:26;;;;;;;0.63;0.63;;;;;;;12.14;100.00;94052.38;5091850;28;20511;-50
2022/04/02 03:53:58;;;;;;;5.70;0.93;;;;;;;11.80;100.00;94053.06;5092677;28;20471;-50
2022/04/02 03:56:26;;;;;;;0.40;0.40;;;;;;;11.92;100.00;94047.94;5092958;28;20850;-50
2022/04/02 03:58:54;;;;;;;0.40;0.40;;;;;;;12.30;100.00;94058.81;5093080;28;20825;-51
2022/04/02 04:01:23;;;;;;;0.30;0.23;;;;;;;12.41;100.00;94054.78;5092481;28;20464;-50
2022/04/02 04:03:51;;;;;;;0.90;0.43;;;;;;;11.78;100.00;94049.94;5092516;28;20432;-51
2022/04/02 04:06:21;;;;;;;0.40;0.30;;;;;;;11.56;100.00;94048.09;5092786;28;20428;-51
2022/04/02 04:08:49;;;;;;;3.00;0.40;;;;;;;11.44;100.00;94064.56;5092539;28;20495;-51
2022/04/02 04:11:19;;;;;;;0.60;0.60;;;;;;;11.60;100.00;94064.19;5092615;28;20433;-51
2022/04/02 04:13:47;;;;;;;0.50;0.27;;;;;;;11.70;100.00;94055.97;5092823;28;20527;-51
2022/04/02 04:16:16;;;;;;;0.40;0.30;;;;;;;12.05;100.00;94058.47;5092658;28;20481;-51
2022/04/02 04:18:44;;;;;;;0.57;0.57;;;;;;;12.09;100.00;94058.63;5092736;28;20436;-51
2022/04/02 04:21:14;;;;;;;0.30;0.20;;;;;;;12.21;100.00;94055.38;5092461;28;20525;-51
2022/04/02 04:23:43;;;;;;;0.30;0.20;;;;;;;12.03;100.00;94073.13;5092277;28;20475;-51
2022/04/02 04:26:13;;;;;;;0.63;0.63;;;;;;;11.71;100.00;94089.41;5092093;28;20928;-50
2022/04/02 04:28:46;;;;;;;0.50;0.50;;;;;;;11.63;100.00;94082.16;5092613;28;20464;-50
2022/04/02 04:31:17;;;;;;;6.53;1.00;;;;;;;11.62;100.00;94107.91;5092223;28;20532;-50
2022/04/02 04:33:46;;;;;;;1.23;1.07;;;;;;;11.73;100.00;94097.84;5092531;28;20539;-50
2022/04/02 04:36:16;;;;;;;0.67;0.67;;;;;;;11.60;100.00;94098.69;5091960;28;20425;-50
2022/04/02 04:38:44;;;;;;;0.80;0.80;;;;;;;11.35;100.00;94097.47;5092113;28;20429;-50
2022/04/02 04:41:13;;;;;;;0.33;0.27;;;;;;;11.19;100.00;94097.03;5092013;28;21016;-50
2022/04/02 04:43:42;;;;;;;0.97;0.97;;;;;;;11.70;100.00;94085.19;5092318;28;20464;-51
2022/04/02 04:46:13;;;;;;;0.30;0.30;;;;;;;12.07;100.00;94085.47;5092376;28;20485;-50
2022/04/02 04:48:41;;;;;;;0.30;0.30;;;;;;;12.11;100.00;94088.31;5091348;28;20428;-50
2022/04/02 04:51:11;;;;;;;0.40;0.30;;;;;;;12.08;100.00;94097.69;5091954;28;20417;-51
2022/04/02 04:53:39;;;;;;;1.23;0.50;;;;;;;12.25;100.00;94107.56;5091339;28;20844;-50
2022/04/02 04:56:08;;;;;;;1.33;1.03;;;;;;;12.48;100.00;94116.22;5092017;28;20478;-50
2022/04/02 04:58:37;;;;;;;0.60;0.50;;;;;;;12.41;100.00;94110.56;5091872;28;20956;-50
2022/04/02 05:01:05;;;;;;;0.50;0.40;;;;;;;12.19;100.00;94114.13;5091904;28;20472;-50
2022/04/02 05:03:35;;;;;;;0.83;0.83;;;;;;;12.32;100.00;94109.78;5091327;28;20949;-50
2022/04/02 05:06:05;;;;;;;1.00;0.40;;;;;;;12.62;100.00;94116.88;5092046;28;20507;-50
2022/04/02 05:08:33;;;;;;;0.40;0.40;;;;;;;12.13;100.00;94128.63;5091585;28;20471;-51
2022/04/02 05:11:02;;;;;;;0.60;0.60;;;;;;;11.35;100.00;94028.50;5091746;28;20972;-50
2022/04/02 05:13:30;;;;;;;0.50;0.37;;;;;;;10.61;100.00;93886.97;5091621;28;20940;-51
2022/04/02 05:15:59;;;;;;;0.40;0.40;;;;;;;12.70;100.00;94116.88;5091714;28;20831;-51
2022/04/02 05:18:28;;;;;;;0.30;0.30;;;;;;;11.91;100.00;94004.69;5091592;28;20433;-51
2022/04/02 05:20:57;;;;;;;0.30;0.30;;;;;;;12.77;100.00;94122.50;5091675;28;20446;-51
2022/04/02 05:23:27;;;;;;;0.30;0.23;;;;;;;12.85;99.63;94138.81;5091683;28;20826;-51
2022/04/02 05:25:55;;;;;;;2.70;0.67;;;;;;;13.09;93.93;94136.50;5091727;28;20421;-51
2022/04/02 05:28:24;;;;;;;0.30;0.20;;;;;;;13.25;90.47;94135.72;5091832;28;20440;-51
2022/04/02 05:30:52;;;;;;;0.60;0.60;;;;;;;13.46;92.53;94132.41;5091914;28;20870;-51
2022/04/02 05:33:21;;;;;;;0.30;0.20;;;;;;;13.21;95.04;94139.31;5091405;28;20439;-52
2022/04/02 05:36:09;;;;;;;0.47;0.47;;;;;;;13.32;87.72;94129.91;5091677;28;20493;-52
2022/04/02 05:38:38;;;;;;;0.30;0.20;;;;;;;13.47;92.69;94149.94;5091187;28;20467;-52
2022/04/02 05:41:06;;;;;;;0.53;0.53;;;;;;;13.40;92.02;94150.41;5091315;28;20428;-52
2022/04/02 05:43:35;;;;;;;0.80;0.80;;;;;;;13.47;88.71;94123.31;5091610;28;20906;-52
2022/04/02 05:46:03;;;;;;;0.30;0.20;;;;;;;13.54;89.09;94123.59;5091800;28;20432;-52
2022/04/02 05:48:33;;;;;;;0.40;0.40;;;;;;;13.50;94.42;94117.38;5091385;28;20462;-51
2022/04/02 05:51:01;;;;;;;0.30;0.20;;;;;;;13.62;96.71;94136.91;5091359;28;20472;-52
2022/04/02 05:53:31;;;;;;;1.63;1.53;;;;;;;12.45;100.00;94135.44;5091367;28;20512;-52
2022/04/02 05:55:59;;;;;;;0.80;0.43;;;;;;;12.21;100.00;94140.38;5091414;28;20964;-51
2022/04/02 05:58:28;;;;;;;0.30;0.30;;;;;;;12.61;100.00;94134.69;5091564;28;20523;-51
2022/04/02 06:00:56;;;;;;;0.40;0.40;;;;;;;13.16;100.00;94142.13;5091456;28;20479;-52
2022/04/02 06:03:25;;;;;;;0.50;0.40;;;;;;;12.79;100.00;94033.69;5090336;28;20508;-52
2022/04/02 06:05:53;;;;;;;0.60;0.60;;;;;;;12.90;100.00;94134.13;5091328;28;20495;-51
2022/04/02 06:08:22;;;;;;;0.43;0.40;;;;;;;12.61;90.62;94128.59;5091143;28;20436;-51
2022/04/02 06:10:52;;;;;;;0.40;0.33;;;;;;;12.84;87.50;94134.56;5091140;28;20884;-51
2022/04/02 06:13:20;;;;;;;0.93;0.90;;;;;;;12.77;100.00;94132.38;5091198;28;20508;-53
2022/04/02 06:15:49;;;;;;;0.93;0.93;;;;;;;12.74;100.00;94138.31;5093166;28;20511;-53
2022/04/02 06:18:18;;;;;;;0.93;0.60;;;;;;;12.91;100.00;94130.34;5095036;28;20451;-53
2022/04/02 06:20:48;;;;;;;0.40;0.40;;;;;;;13.22;100.00;94117.72;5094461;28;20428;-53
2022/04/02 06:23:17;;;;;;;1.23;1.13;;;;;;;13.36;100.00;94109.53;5094548;28;21068;-53
2022/04/02 06:25:45;;;;;;;0.67;0.53;;;;;;;13.34;100.00;94109.09;5094797;28;20515;-53
2022/04/02 06:28:15;;;;;;;2.70;0.70;;;;;;;13.60;100.00;94109.03;5095008;28;20420;-53
2022/04/02 06:30:43;;;;;;;2.07;0.70;;;;;;;13.61;95.17;94099.97;5094831;28;20464;-53
2022/04/02 06:33:12;;;;;;;0.93;0.93;;;;;;;13.12;83.37;94107.41;5094890;28;20902;-53
2022/04/02 06:35:41;;;;;;;5.40;3.60;;;;;;;12.83;87.81;94055.88;5094764;28;20489;-53
2022/04/02 06:38:10;;;;;;;0.70;0.70;;;;;;;13.27;100.00;94117.56;5094414;28;20421;-54
2022/04/02 06:40:39;;;;;;;0.60;0.40;;;;;;;13.31;100.00;94093.75;5094390;28;20468;-52
2022/04/02 06:43:07;;;;;;;1.17;1.17;;;;;;;13.59;98.96;94113.59;5094393;28;20536;-51
2022/04/02 06:45:37;;;;;;;1.37;1.20;;;;;;;13.56;96.94;94119.53;5094250;28;20428;-53
2022/04/02 06:48:06;;;;;;;1.67;1.57;;;;;;;13.55;93.96;94114.53;5094381;28;20429;-53
2022/04/02 06:50:34;;;;;;;0.90;0.90;;;;;;;13.38;99.81;94117.22;5094587;28;20504;-51
2022/04/02 06:53:06;;;;;;;2.20;1.23;;;;;;;12.91;100.00;94138.31;5094082;28;20432;-52
2022/04/02 06:55:34;;;;;;;4.03;2.73;;;;;;;13.15;100.00;94119.28;5093950;28;20456;-52
2022/04/02 06:58:04;;;;;;;1.50;1.00;;;;;;;13.21;100.00;94118.00;5094575;28;20838;-52
2022/04/02 07:00:32;;;;;;;1.70;0.77;;;;;;;13.52;97.09;94139.13;5094497;28;20513;-52
2022/04/02 07:03:02;;;;;;;1.47;1.00;;;;;;;13.83;89.59;94137.81;5093893;28;20476;-52
2022/04/02 07:05:31;;;;;;;2.17;0.67;;;;;;;13.77;93.54;94120.44;5094136;28;20423;-54
2022/04/02 07:07:59;;;;;;;0.70;0.70;;;;;;;13.69;78.57;94141.75;5094068;28;20432;-52
2022/04/02 07:10:28;;;;;;;0.50;0.40;;;;;;;13.91;76.66;94138.91;5093952;28;20525;-53
2022/04/02 07:12:56;;;;;;;0.40;0.30;;;;;;;14.56;76.05;94135.81;5093916;28;20443;-52
2022/04/02 07:15:33;;;;;;;0.40;0.40;;;;;;;14.53;83.47;94115.91;5093827;28;20433;-52
2022/04/02 07:18:07;;;;;;;0.50;0.40;;;;;;;14.42;76.13;94129.94;5093065;28;20489;-52
2022/04/02 07:20:37;;;;;;;0.30;0.20;;;;;;;14.57;65.37;94135.50;5094093;28;20420;-52
2022/04/02 07:23:09;;;;;;;0.47;0.47;;;;;;;14.33;70.99;94134.53;5093611;28;20479;-52
2022/04/02 07:25:39;;;;;;;0.50;0.30;;;;;;;14.69;72.76;94150.81;5093318;28;20436;-53
2022/04/02 07:28:09;;;;;;;0.30;0.20;;;;;;;14.82;69.53;94133.00;5093575;28;20433;-52
2022/04/02 07:30:40;;;;;;;0.30;0.20;;;;;;;14.72;78.08;94136.84;5093641;28;20905;-52
2022/04/02 07:33:09;;;;;;;0.30;0.20;;;;;;;16.03;69.30;94141.56;5093679;28;20485;-52
2022/04/02 07:35:45;;;;;;;0.87;0.87;;;;;;;16.09;62.39;94138.31;5093789;28;20430;-51
2022/04/02 07:38:22;;;;;;;0.30;0.20;;;;;;;16.15;63.35;94150.38;5093707;28;20509;-51
2022/04/02 07:40:53;;;;;;;0.30;0.20;;;;;;;15.50;65.50;94145.06;5093700;28;20508;-51
2022/04/02 07:43:30;;;;;;;0.50;0.30;;;;;;;15.47;71.28;94157.19;5093025;28;20996;-53
2022/04/02 07:46:06;;;;;;;0.70;0.70;;;;;;;15.80;67.52;94154.53;5093290;28;20432;-53
2022/04/02 07:48:38;;;;;;;0.30;0.20;;;;;;;16.87;61.87;94151.53;5092973;28;20431;-55
2022/04/02 07:51:14;;;;;;;0.40;0.30;;;;;;;17.63;52.65;94159.53;5093393;28;20466;-55
2022/04/02 07:53:45;;;;;;;0.30;0.20;;;;;;;18.74;45.55;94140.56;5093120;28;20475;-56
2022/04/02 07:56:17;;;;;;;0.50;0.50;;;;;;;19.05;48.21;94137.78;5093335;28;20428;-58
2022/04/02 07:58:48;;;;;;;0.60;0.30;;;;;;;19.33;43.57;94143.78;5093314;28;20503;-60
2022/04/02 08:01:21;;;;;;;0.40;0.20;;;;;;;19.46;43.46;93997.44;5092896;28;20432;-61
2022/04/02 08:03:53;;;;;;;1.57;0.60;;;;;;;19.73;41.21;94140.00;5092789;28;20464;-61
2022/04/02 08:06:23;;;;;;;0.40;0.20;;;;;;;20.23;39.12;94145.97;5092866;28;20475;-59
2022/04/02 08:08:51;;;;;;;0.40;0.20;;;;;;;21.23;39.55;94119.47;5092445;28;21061;-57
2022/04/02 08:11:21;;;;;;;0.63;0.50;;;;;;;19.75;37.53;93919.97;5092781;28;20436;-58
2022/04/02 08:13:57;;;;;;;0.40;0.20;;;;;;;20.80;36.04;94134.22;5093062;28;20428;-57
2022/04/02 08:16:26;;;;;;;0.40;0.30;;;;;;;21.42;34.45;94122.03;5092658;28;20475;-56
2022/04/02 08:18:57;;;;;;;0.40;0.30;;;;;;;21.67;36.20;94125.03;5092555;28;20468;-56
2022/04/02 08:21:26;;;;;;;0.30;0.20;;;;;;;22.35;35.48;94130.03;5092391;28;20436;-56
2022/04/02 08:23:56;;;;;;;0.40;0.30;;;;;;;23.77;31.95;94120.97;5092243;28;20472;-55
2022/04/02 08:26:32;;;;;;;0.40;0.23;;;;;;;23.74;29.83;94106.28;5092819;28;20443;-56
2022/04/02 08:32:09;;;;;;;1.63;0.70;;;;;;;23.89;31.02;94126.03;5092823;28;20487;-56
2022/04/02 08:35:02;;;;;;;1.60;0.33;;;;;;;23.45;30.89;94137.06;5091869;28;20487;-56
2022/04/02 08:37:58;;;;;;;0.30;0.20;;;;;;;22.32;30.15;94135.38;5092827;28;20498;-56
2022/04/02 08:40:50;;;;;;;0.47;0.30;;;;;;;22.35;32.78;94140.81;5092249;28;20535;-55
2022/04/02 08:43:59;;;;;;;0.83;0.83;;;;;;;21.84;31.54;94139.84;5092011;28;20445;-55
2022/04/02 08:46:35;;;;;;;0.67;0.67;;;;;;;21.79;33.60;94137.50;5052563;28;21017;-57
2022/04/02 08:49:24;;;;;;;1.33;0.57;;;;;;;23.26;31.47;94145.41;5092538;28;20511;-56
2022/04/02 08:52:22;;;;;;;0.70;0.50;;;;;;;21.79;32.10;94145.59;5092139;28;20822;-57
2022/04/02 08:55:09;;;;;;;2.00;1.00;;;;;;;22.30;32.78;94134.97;5090974;28;20463;-53
2022/04/02 08:58:00;;;;;;;0.40;0.30;;;;;;;22.85;33.73;94109.63;5091790;28;20974;-53
2022/04/02 09:00:28;;;;;;;0.30;0.20;;;;;;;24.46;30.79;94105.31;5092265;28;20519;-53
2022/04/02 09:03:19;;;;;;;0.30;0.20;;;;;;;23.84;29.86;94137.22;5091827;28;20471;-52
2022/04/02 09:06:01;;;;;;;0.30;0.20;;;;;;;23.67;29.90;94117.06;5092288;28;20443;-52
2022/04/02 09:09:05;;;;;;;0.30;0.20;;;;;;;24.12;29.06;94136.56;5091648;28;20432;-52
2022/04/02 09:12:01;;;;;;;1.03;0.40;;;;;;;22.96;28.55;94140.19;5091813;28;20432;-52
2022/04/02 09:14:45;;;;;;;0.50;0.30;;;;;;;23.83;28.27;94141.84;5091537;28;20420;-52
2022/04/02 09:17:35;;;;;;;0.40;0.33;;;;;;;23.29;29.91;94110.28;5091504;28;20625;-52
2022/04/02 09:20:20;;;;;;;0.43;0.43;;;;;;;23.66;28.75;94141.78;5091596;28;20479;-56
2022/04/02 09:23:11;;;;;;;0.50;0.50;;;;;;;23.92;28.47;94147.69;5091535;28;20664;-56
2022/04/02 09:26:15;;;;;;;0.40;0.30;;;;;;;23.43;27.28;94144.00;5086462;28;20491;-56
2022/04/02 09:28:46;;;;;;;0.30;0.20;;;;;;;23.79;28.80;94146.50;5091319;28;20928;-55
2022/04/02 09:31:47;;;;;;;0.40;0.30;;;;;;;23.21;28.30;94156.59;5091691;28;20459;-55
2022/04/02 09:35:03;;;;;;;0.30;0.20;;;;;;;24.60;28.78;94148.66;5091869;28;20517;-55
2022/04/02 09:38:03;;;;;;;0.40;0.30;;;;;;;23.96;27.67;94153.88;5092003;28;20812;-56
2022/04/02 09:40:42;;;;;;;7.53;0.53;;;;;;;23.50;27.26;94163.75;5074076;28;20440;-56
2022/04/02 09:43:27;;;;;;;0.30;0.20;;;;;;;22.19;27.92;94161.84;5091588;28;20503;-56
2022/04/02 09:46:27;;;;;;;0.30;0.20;;;;;;;22.22;29.00;94174.63;5091280;28;20537;-56
2022/04/02 09:49:00;;;;;;;0.40;0.30;;;;;;;23.10;28.31;94144.91;5092282;28;20949;-56
2022/04/02 09:51:32;;;;;;;0.30;0.20;;;;;;;24.23;29.18;94170.66;5095518;28;20433;-55
2022/04/02 09:54:04;;;;;;;0.50;0.50;;;;;;;24.52;26.33;94128.13;5095730;28;20454;-55
2022/04/02 09:56:36;;;;;;;0.30;0.30;;;;;;;24.39;26.69;94172.97;5095360;28;20460;-55
2022/04/02 09:59:09;;;;;;;0.47;0.30;;;;;;;25.71;25.71;94169.88;5095457;28;20519;-56
2022/04/02 10:01:40;;;;;;;0.40;0.30;;;;;;;25.01;26.30;94171.53;5095533;28;20492;-56
2022/04/02 10:04:35;;;;;;;0.40;0.30;;;;;;;24.65;27.09;94191.63;5095658;28;20480;-56
2022/04/02 10:07:05;;;;;;;0.30;0.20;;;;;;;23.22;27.90;94190.59;5094686;28;20436;-56
2022/04/02 10:09:36;;;;;;;0.40;0.30;;;;;;;21.67;29.45;94197.06;5094849;28;20468;-56
2022/04/02 10:12:08;;;;;;;0.50;0.40;;;;;;;22.04;29.37;94179.03;5095287;28;20420;-57
2022/04/02 10:14:40;;;;;;;0.40;0.30;;;;;;;20.48;31.93;94196.75;5094870;28;20439;-56
2022/04/02 10:17:08;;;;;;;0.40;0.40;;;;;;;20.80;33.71;94134.22;5095119;28;20455;-55
2022/04/02 10:19:39;;;;;;;0.70;0.40;;;;;;;20.63;33.75;94183.19;5094858;28;20432;-55
2022/04/02 10:22:09;;;;;;;0.50;0.50;;;;;;;19.77;34.59;94178.47;5094929;28;20530;-56
2022/04/02 10:24:39;;;;;;;0.40;0.40;;;;;;;19.68;36.12;94189.47;5094833;28;20525;-56
2022/04/02 10:27:11;;;;;;;1.47;0.50;;;;;;;20.03;34.68;94176.72;5095296;28;20478;-56
2022/04/02 10:30:09;;;;;;;0.30;0.20;;;;;;;20.01;34.71;94184.34;5094306;28;20514;-56
2022/04/02 10:32:53;;;;;;;0.50;0.30;;;;;;;19.35;34.20;94179.16;5094788;28;20501;-57
2022/04/02 10:35:23;;;;;;;0.40;0.30;;;;;;;18.86;33.96;94172.66;5095011;28;20821;-58
2022/04/02 10:38:05;;;;;;;0.50;0.40;;;;;;;19.01;34.74;94158.44;5094821;28;20856;-58
2022/04/02 10:40:42;;;;;;;0.40;0.30;;;;;;;18.94;35.36;94169.00;5093474;28;20493;-58
2022/04/02 10:43:21;;;;;;;0.40;0.20;;;;;;;19.56;34.64;94160.78;5094881;28;20520;-58
2022/04/02 10:45:51;;;;;;;0.40;0.20;;;;;;;19.51;34.65;94138.78;5094496;28;21045;-58
2022/04/02 10:48:28;;;;;;;0.40;0.30;;;;;;;19.48;34.04;94167.16;5093784;28;20940;-60
2022/04/02 10:50:58;;;;;;;0.40;0.30;;;;;;;19.05;35.06;94159.28;5094450;28;20428;-60
2022/04/02 10:53:33;;;;;;;0.40;0.20;;;;;;;18.67;35.05;94063.31;5094812;28;20436;-60
2022/04/02 10:56:08;;;;;;;0.40;0.30;;;;;;;18.46;34.33;94102.28;5095072;28;20776;-60
2022/04/02 10:58:38;;;;;;;0.40;0.20;;;;;;;18.88;35.37;94148.91;5094473;28;20929;-60
2022/04/02 11:01:11;;;;;;;0.40;0.20;;;;;;;18.89;35.12;94129.78;5094154;28;20412;-61
2022/04/02 11:03:42;;;;;;;3.13;0.37;;;;;;;19.51;34.61;94153.00;5095021;28;20433;-60
2022/04/02 11:06:11;;;;;;;0.40;0.20;;;;;;;19.17;35.21;94145.75;5094834;28;20964;-60
2022/04/02 11:08:40;;;;;;;0.50;0.47;;;;;;;18.80;35.77;94142.59;5093315;28;20431;-58
2022/04/02 11:11:17;;;;;;;0.40;0.20;;;;;;;18.82;35.83;94065.19;5094536;28;20428;-60
2022/04/02 11:13:46;;;;;;;0.57;0.57;;;;;;;19.46;34.82;94133.69;5094529;28;20424;-59
2022/04/02 11:17:00;;;;;;;0.40;0.30;;;;;;;18.85;37.53;94115.50;5093684;28;20424;-60
2022/04/02 11:22:23;;;;;;;0.50;0.30;;;;;;;19.12;35.28;94129.91;5093906;28;20428;-58
2022/04/02 11:25:02;;;;;;;0.40;0.20;;;;;;;18.62;36.71;94101.16;5094322;28;20467;-58
2022/04/02 11:27:47;;;;;;;0.60;0.50;;;;;;;17.78;36.20;94006.78;5094089;28;21043;-59
2022/04/02 11:30:18;;;;;;;0.50;0.37;;;;;;;18.59;34.75;94125.25;5078969;28;20840;-59
2022/04/02 11:32:50;;;;;;;0.40;0.20;;;;;;;18.93;35.39;94125.28;5094072;28;20421;-59
2022/04/02 11:35:23;;;;;;;0.40;0.20;;;;;;;19.30;34.04;94120.28;5093537;28;20984;-58
2022/04/02 11:38:09;;;;;;;0.50;0.30;;;;;;;18.60;35.06;94121.41;5094056;28;20820;-58
2022/04/02 11:40:47;;;;;;;0.40;0.20;;;;;;;18.75;35.90;94105.28;5093841;28;20448;-59
2022/04/02 11:43:30;;;;;;;1.03;0.50;;;;;;;18.18;38.57;94097.00;5093467;28;20420;-57
2022/04/02 11:46:01;;;;;;;1.90;0.97;;;;;;;17.99;34.39;94113.78;5093634;28;21061;-57
2022/04/02 11:48:34;;;;;;;1.77;0.43;;;;;;;17.98;35.13;94106.09;5094494;28;20409;-57
2022/04/02 11:51:14;;;;;;;0.50;0.30;;;;;;;17.86;34.92;94116.88;5093541;28;20467;-57
2022/04/02 11:53:44;;;;;;;0.40;0.20;;;;;;;17.45;35.46;94069.84;5093111;28;20497;-57
2022/04/02 11:56:27;;;;;;;0.67;0.67;;;;;;;17.29;35.54;94026.16;5093050;28;20838;-56
2022/04/02 11:58:58;;;;;;;0.60;0.47;;;;;;;17.84;36.61;94121.78;5093332;28;20421;-56
2022/04/02 12:01:27;;;;;;;0.40;0.30;;;;;;;17.06;35.71;94012.53;5092768;28;20450;-56
2022/04/02 12:04:12;;;;;;;0.40;0.20;;;;;;;17.48;36.36;94103.97;5092819;28;20487;-56
2022/04/02 12:06:42;;;;;;;0.40;0.30;;;;;;;17.94;36.30;94097.16;5093087;28;20485;-56